Time;durP1;ratioP1;P1;durP2;ratioP2;P2;SDS_P1;SDS_P2;PMS_P1;PMS_P2;Temp;Humidity;BMP_temperature;BMP_pressure;BME280_temperature;BME280_humidity;BME280_pressure;Samples;Min_cycle;Max_cycle;Signal;HPM_P1;HPM_P2
2021/06/11 05:02:22;;;;;;;6.63;5.13;;;15.90;99.90;;;;;;5079260;23;20094;-80
2021/06/11 05:04:48;;;;;;;7.30;5.05;;;15.90;99.90;;;;;;4955749;29;20085;-79
2021/06/11 05:07:15;;;;;;;7.30;5.18;;;16.00;99.90;;;;;;4955696;29;20544;-79
2021/06/11 05:09:41;;;;;;;9.07;5.88;;;16.00;99.90;;;;;;4955825;29;20062;-78
2021/06/11 05:12:09;;;;;;;7.97;5.60;;;16.00;99.90;;;;;;4955357;29;20043;-79
2021/06/11 05:14:36;;;;;;;7.93;4.95;;;15.90;99.90;;;;;;4955273;29;20138;-79
2021/06/11 05:17:04;;;;;;;7.68;5.78;;;16.00;99.90;;;;;;4955240;29;20087;-79
2021/06/11 05:19:32;;;;;;;6.30;5.32;;;16.00;99.90;;;;;;4938662;29;20134;-78
2021/06/11 05:21:58;;;;;;;7.10;5.53;;;16.00;99.90;;;;;;4955737;29;20065;-79
2021/06/11 05:24:25;;;;;;;6.95;4.97;;;16.00;99.90;;;;;;4938999;29;20150;-79
2021/06/11 05:26:52;;;;;;;6.82;5.32;;;16.00;99.90;;;;;;4955025;29;20055;-78
2021/06/11 05:31:49;;;;;;;9.45;6.03;;;16.00;99.90;;;;;;4896356;29;20123;-84
2021/06/11 05:34:16;;;;;;;7.43;5.38;;;16.00;99.90;;;;;;4897948;29;20116;-86
2021/06/11 05:36:44;;;;;;;7.20;5.18;;;16.00;99.90;;;;;;4898229;29;20048;-85
2021/06/11 05:39:10;;;;;;;7.10;5.65;;;16.10;99.90;;;;;;4897887;29;20550;-86
2021/06/11 05:41:37;;;;;;;7.30;5.60;;;16.20;99.90;;;;;;4897966;29;20056;-86
2021/06/11 05:44:04;;;;;;;8.00;5.40;;;16.20;99.90;;;;;;4898038;29;20056;-86
2021/06/11 05:46:31;;;;;;;8.32;5.40;;;16.30;99.90;;;;;;4897753;29;20077;-86
2021/06/11 05:48:58;;;;;;;7.53;5.60;;;16.30;99.90;;;;;;4897727;29;20052;-85
2021/06/11 05:51:24;;;;;;;7.30;5.72;;;16.30;99.90;;;;;;4898021;29;20049;-85
2021/06/11 05:53:52;;;;;;;7.68;5.82;;;16.30;99.90;;;;;;4897954;29;20053;-85
2021/06/11 05:56:19;;;;;;;7.50;5.30;;;16.40;99.90;;;;;;4897806;29;20072;-85
2021/06/11 05:58:46;;;;;;;8.30;5.38;;;16.40;99.90;;;;;;4897698;29;20139;-85
2021/06/11 06:01:13;;;;;;;7.32;5.43;;;16.50;99.90;;;;;;4898022;29;20056;-85
2021/06/11 06:03:39;;;;;;;8.05;5.82;;;16.60;99.90;;;;;;4897672;29;20063;-85
2021/06/11 06:06:06;;;;;;;7.80;5.35;;;16.60;99.90;;;;;;4897890;29;20261;-85
2021/06/11 06:08:32;;;;;;;7.40;5.47;;;16.60;99.90;;;;;;4897804;29;20180;-85
2021/06/11 06:11:00;;;;;;;7.53;5.50;;;16.70;99.90;;;;;;4897644;29;20080;-85
2021/06/11 06:13:27;;;;;;;7.70;5.60;;;16.70;99.90;;;;;;4897587;29;20136;-85
2021/06/11 06:15:55;;;;;;;6.82;5.25;;;16.80;99.90;;;;;;4897791;29;20144;-85
2021/06/11 06:18:22;;;;;;;6.28;4.80;;;16.90;99.90;;;;;;4897591;29;20447;-85
2021/06/11 06:20:48;;;;;;;7.03;5.10;;;17.00;99.90;;;;;;4897668;29;20451;-85
2021/06/11 06:23:15;;;;;;;7.47;5.47;;;17.00;99.90;;;;;;4897623;29;20056;-85
2021/06/11 06:25:42;;;;;;;6.88;4.95;;;17.00;99.90;;;;;;4897557;29;20132;-85
2021/06/11 06:28:10;;;;;;;6.20;4.80;;;17.10;99.90;;;;;;4897438;29;20059;-85
2021/06/11 06:30:37;;;;;;;7.60;5.55;;;17.10;99.90;;;;;;4897292;29;20060;-85
2021/06/11 06:33:03;;;;;;;7.75;5.60;;;17.20;99.90;;;;;;4897716;29;20136;-85
2021/06/11 06:35:30;;;;;;;7.43;5.13;;;17.30;99.90;;;;;;4897602;29;20511;-85
2021/06/11 06:37:57;;;;;;;7.93;5.30;;;17.30;99.90;;;;;;4897460;29;20148;-85
2021/06/11 06:40:23;;;;;;;7.10;5.45;;;17.30;99.90;;;;;;4897973;29;20052;-85
2021/06/11 06:42:50;;;;;;;7.93;6.05;;;17.40;99.90;;;;;;4897302;29;20527;-85
2021/06/11 06:45:19;;;;;;;6.65;5.15;;;17.40;99.90;;;;;;4897576;29;20131;-85
2021/06/11 06:47:48;;;;;;;6.32;5.00;;;17.50;99.90;;;;;;4897585;29;20502;-85
2021/06/11 06:50:17;;;;;;;7.38;5.63;;;17.60;99.90;;;;;;4897450;29;20128;-85
2021/06/11 06:52:44;;;;;;;7.63;5.40;;;17.60;99.90;;;;;;4897447;29;20476;-85
2021/06/11 06:55:12;;;;;;;6.53;5.13;;;17.60;99.90;;;;;;4899976;29;20123;-85
2021/06/11 06:57:39;;;;;;;6.95;5.25;;;17.70;99.90;;;;;;4900774;29;20052;-85
2021/06/11 07:00:08;;;;;;;7.28;5.82;;;17.80;99.90;;;;;;4900699;29;20088;-85
2021/06/11 07:02:36;;;;;;;8.50;5.47;;;17.80;99.90;;;;;;4900490;29;20104;-86
2021/06/11 07:05:04;;;;;;;7.95;5.45;;;17.90;99.90;;;;;;4900618;29;20396;-85
2021/06/11 07:07:31;;;;;;;6.40;4.85;;;18.00;99.90;;;;;;4900409;29;20076;-85
2021/06/11 07:09:57;;;;;;;6.68;4.85;;;18.00;99.90;;;;;;4900392;29;20052;-85
2021/06/11 07:12:26;;;;;;;6.63;4.85;;;18.00;99.90;;;;;;4900596;29;20200;-85
2021/06/11 07:14:52;;;;;;;6.35;4.65;;;18.10;99.90;;;;;;4900521;29;20474;-85
2021/06/11 07:17:19;;;;;;;8.68;5.50;;;18.20;99.90;;;;;;4900494;29;20131;-86
2021/06/11 07:19:47;;;;;;;7.57;5.50;;;18.30;99.90;;;;;;4900268;29;20053;-85
2021/06/11 07:22:13;;;;;;;7.55;5.50;;;18.30;99.90;;;;;;4900217;29;20135;-84
2021/06/11 07:24:40;;;;;;;6.47;4.90;;;18.40;99.90;;;;;;4900246;29;20052;-86
2021/06/11 07:27:07;;;;;;;6.65;4.50;;;18.50;99.90;;;;;;4900319;29;20144;-85
2021/06/11 07:29:42;;;;;;;7.03;4.70;;;18.50;99.90;;;;;;4899817;29;20429;-85
2021/06/11 07:32:08;;;;;;;6.47;4.47;;;18.60;99.90;;;;;;4900039;29;20482;-85
2021/06/11 07:34:35;;;;;;;7.13;5.18;;;18.70;99.90;;;;;;4900017;29;20080;-85
2021/06/11 07:37:04;;;;;;;7.13;5.30;;;18.80;99.90;;;;;;4900545;29;20394;-85
2021/06/11 07:39:30;;;;;;;6.35;4.85;;;18.90;99.90;;;;;;4899947;29;20131;-85
2021/06/11 07:41:57;;;;;;;6.68;5.30;;;18.90;99.90;;;;;;4899863;29;20048;-85
2021/06/11 07:44:24;;;;;;;6.78;4.93;;;19.00;99.90;;;;;;4899931;29;20075;-85
2021/06/11 07:46:51;;;;;;;8.00;5.93;;;19.10;99.90;;;;;;4899769;29;20135;-85
2021/06/11 07:49:17;;;;;;;7.13;5.25;;;19.20;99.90;;;;;;4899620;29;20131;-85
2021/06/11 07:51:44;;;;;;;6.97;5.30;;;19.20;99.90;;;;;;4899539;29;20108;-85
2021/06/11 07:54:12;;;;;;;6.00;4.50;;;19.30;99.90;;;;;;4899567;29;20451;-85
2021/06/11 07:56:38;;;;;;;5.88;4.80;;;19.30;99.90;;;;;;4899733;29;20048;-85
2021/06/11 07:59:05;;;;;;;7.32;5.30;;;19.40;99.90;;;;;;4899530;29;20060;-85
2021/06/11 08:01:33;;;;;;;6.93;5.63;;;19.50;99.80;;;;;;4899735;29;20139;-85
2021/06/11 08:03:59;;;;;;;7.50;5.35;;;19.60;99.70;;;;;;4899232;29;20044;-85
2021/06/11 08:06:27;;;;;;;6.85;5.13;;;19.70;99.30;;;;;;4899290;29;20162;-85
2021/06/11 08:08:54;;;;;;;7.55;5.90;;;19.70;98.90;;;;;;4899121;29;20112;-85
2021/06/11 08:11:22;;;;;;;6.32;4.93;;;19.80;98.80;;;;;;4899478;29;20108;-85
2021/06/11 08:13:48;;;;;;;5.55;4.35;;;19.80;98.60;;;;;;4899330;29;20104;-85
2021/06/11 08:16:15;;;;;;;6.00;4.68;;;19.90;98.60;;;;;;4899343;29;20135;-85
2021/06/11 08:18:42;;;;;;;7.57;5.93;;;20.00;98.30;;;;;;4899246;29;20060;-85
2021/06/11 08:21:09;;;;;;;6.25;5.07;;;20.10;98.20;;;;;;4899237;29;20131;-85
2021/06/11 08:23:35;;;;;;;5.50;4.50;;;20.20;98.10;;;;;;4899083;29;20505;-85
2021/06/11 08:26:02;;;;;;;6.63;4.80;;;20.20;98.20;;;;;;4899191;29;20048;-85
2021/06/11 08:28:30;;;;;;;5.65;4.10;;;20.30;97.90;;;;;;4899013;29;20503;-85
2021/06/11 08:30:57;;;;;;;5.95;4.72;;;20.40;97.70;;;;;;4898705;29;20447;-85
2021/06/11 08:33:23;;;;;;;7.53;5.70;;;20.50;97.60;;;;;;4898926;29;20111;-85
2021/06/11 08:35:50;;;;;;;6.82;5.55;;;20.60;97.40;;;;;;4898959;29;20498;-85
2021/06/11 08:38:16;;;;;;;5.97;4.70;;;20.60;97.40;;;;;;4898896;29;20127;-85
2021/06/11 08:40:44;;;;;;;5.50;4.50;;;20.70;97.20;;;;;;4898866;29;20116;-85
2021/06/11 08:43:10;;;;;;;5.85;4.68;;;20.70;97.00;;;;;;4898723;29;20577;-85
2021/06/11 08:45:38;;;;;;;5.00;4.00;;;20.80;96.80;;;;;;4898669;29;20463;-85
2021/06/11 08:48:06;;;;;;;5.55;4.20;;;20.90;96.70;;;;;;4898550;29;20135;-85
2021/06/11 08:50:34;;;;;;;6.30;4.70;;;21.00;96.60;;;;;;4898715;29;20128;-85
2021/06/11 08:53:02;;;;;;;5.68;4.57;;;21.00;96.60;;;;;;4898670;29;20140;-85
2021/06/11 08:55:29;;;;;;;5.75;4.38;;;21.10;96.40;;;;;;4898561;29;20056;-86
2021/06/11 08:57:56;;;;;;;5.82;4.38;;;21.20;96.30;;;;;;4898374;29;20117;-85
2021/06/11 09:00:24;;;;;;;5.22;4.30;;;21.20;96.20;;;;;;4898632;29;20139;-85
2021/06/11 09:03:14;;;;;;;5.57;4.30;;;21.30;96.00;;;;;;4898362;29;20490;-85
2021/06/11 09:05:42;;;;;;;5.93;4.85;;;21.30;95.80;;;;;;4898292;29;20538;-85
2021/06/11 09:08:14;;;;;;;5.45;4.07;;;21.40;95.70;;;;;;4898341;29;20131;-85
2021/06/11 09:10:42;;;;;;;6.45;4.85;;;21.50;95.70;;;;;;4898293;29;20049;-84
2021/06/11 09:13:09;;;;;;;5.13;4.18;;;21.50;95.40;;;;;;4898188;29;20045;-84
2021/06/11 09:15:35;;;;;;;6.10;4.60;;;21.60;95.40;;;;;;4898314;29;20045;-84
2021/06/11 09:18:22;;;;;;;6.32;4.57;;;21.70;95.40;;;;;;4897845;29;20136;-85
2021/06/11 09:20:49;;;;;;;5.88;4.50;;;21.70;95.20;;;;;;4898245;29;20072;-84
2021/06/11 09:23:17;;;;;;;5.97;4.85;;;21.80;94.80;;;;;;4898059;29;20140;-84
2021/06/11 09:25:48;;;;;;;6.10;4.82;;;21.80;94.70;;;;;;4898237;29;20056;-84
2021/06/11 09:28:17;;;;;;;7.43;5.60;;;21.90;94.40;;;;;;4898183;29;20084;-84
2021/06/11 09:30:53;;;;;;;5.82;4.60;;;21.90;94.20;;;;;;4898037;29;20052;-84
2021/06/11 09:33:23;;;;;;;7.03;5.15;;;22.00;94.20;;;;;;4897931;29;20088;-84
2021/06/11 09:35:53;;;;;;;7.38;4.60;;;22.00;94.00;;;;;;4897938;29;20135;-84
2021/06/11 09:38:25;;;;;;;6.30;4.97;;;22.00;93.70;;;;;;4898034;29;20163;-85
2021/06/11 09:41:08;;;;;;;6.15;4.70;;;22.10;93.70;;;;;;4897986;29;20091;-85
2021/06/11 09:43:52;;;;;;;6.20;4.40;;;22.20;93.60;;;;;;4897958;29;20053;-84
2021/06/11 09:46:19;;;;;;;;;;;22.20;93.60;;;;;;4898532;29;20189;-84
2021/06/11 09:48:50;;;;;;;8.55;4.28;;;22.30;93.70;;;;;;4897875;29;20006;-85
2021/06/11 09:51:19;;;;;;;6.65;4.70;;;22.30;93.70;;;;;;4897950;29;20045;-85
2021/06/11 09:53:47;;;;;;;5.95;4.45;;;22.40;93.20;;;;;;4897854;29;20095;-84
2021/06/11 09:56:21;;;;;;;6.18;5.20;;;22.40;93.10;;;;;;4897670;29;20260;-85
2021/06/11 09:58:48;;;;;;;6.25;4.68;;;22.50;92.80;;;;;;4897622;29;20048;-85
2021/06/11 10:01:16;;;;;;;6.05;4.75;;;22.60;92.60;;;;;;4897781;29;20135;-85
2021/06/11 10:03:45;;;;;;;4.90;3.83;;;22.60;92.40;;;;;;4897665;29;20455;-85
2021/06/11 10:06:15;;;;;;;5.57;4.35;;;22.70;92.40;;;;;;4897779;29;20049;-85
2021/06/11 10:08:43;;;;;;;5.57;4.15;;;22.70;92.50;;;;;;4897606;29;20502;-85
2021/06/11 10:11:12;;;;;;;5.10;4.20;;;22.80;92.60;;;;;;4897586;29;20135;-85
2021/06/11 10:13:40;;;;;;;6.43;5.20;;;22.80;92.60;;;;;;4897532;29;20045;-84
2021/06/11 10:16:08;;;;;;;5.20;4.43;;;22.90;92.10;;;;;;4897511;29;20052;-85
2021/06/11 10:18:35;;;;;;;6.10;5.10;;;22.90;91.70;;;;;;4896330;29;20139;-86
2021/06/11 10:21:02;;;;;;;6.47;4.82;;;23.00;90.60;;;;;;4882724;29;20053;-81
2021/06/11 10:23:34;;;;;;;5.53;4.88;;;23.00;89.90;;;;;;4879999;29;20045;-79
2021/06/11 10:26:02;;;;;;;6.68;4.30;;;23.00;89.50;;;;;;4878976;29;20076;-80
2021/06/11 10:28:31;;;;;;;5.63;4.20;;;23.10;89.40;;;;;;4880604;29;20053;-80
2021/06/11 10:31:00;;;;;;;5.85;3.90;;;23.10;87.70;;;;;;4882396;29;20088;-79
2021/06/11 10:33:50;;;;;;;5.75;3.88;;;23.10;86.30;;;;;;4882250;29;20132;-80
2021/06/11 10:36:41;;;;;;;5.22;3.90;;;23.20;86.30;;;;;;4882398;29;20049;-85
2021/06/11 10:39:25;;;;;;;5.13;3.47;;;23.20;83.20;;;;;;4882304;29;20104;-85
2021/06/11 10:42:07;;;;;;;4.75;3.28;;;23.40;83.20;;;;;;4881960;29;20499;-84
2021/06/11 10:44:43;;;;;;;4.85;3.35;;;23.40;82.90;;;;;;4881986;29;20053;-85
2021/06/11 10:47:27;;;;;;;3.85;2.88;;;23.50;82.00;;;;;;4897237;29;20048;-84
2021/06/11 10:50:10;;;;;;;;;;;23.50;81.90;;;;;;4897314;29;20111;-84
2021/06/11 10:52:39;;;;;;;6.53;3.38;;;23.60;81.60;;;;;;4891779;29;19945;-85
2021/06/11 10:55:46;;;;;;;5.15;3.22;;;23.70;80.90;;;;;;4897862;29;20139;-84
2021/06/11 10:58:36;;;;;;;5.90;3.63;;;23.70;79.00;;;;;;4897813;29;20048;-82
2021/06/11 11:01:28;;;;;;;5.13;3.25;;;23.70;78.30;;;;;;4895887;29;20044;-84
2021/06/11 11:03:57;;;;;;;4.50;3.60;;;23.70;78.50;;;;;;4895692;29;20131;-83
2021/06/11 11:06:35;;;;;;;4.30;3.20;;;23.70;76.40;;;;;;4897621;29;20137;-83
2021/06/11 11:09:06;;;;;;;4.28;2.97;;;23.80;77.40;;;;;;4897507;29;20052;-83
2021/06/11 11:11:38;;;;;;;5.00;3.67;;;23.80;77.40;;;;;;4889580;29;20112;-83
2021/06/11 11:14:06;;;;;;;7.00;3.95;;;23.80;77.60;;;;;;4878593;29;20056;-83
2021/06/11 11:16:37;;;;;;;4.60;3.80;;;23.90;76.40;;;;;;4896362;29;20505;-84
2021/06/11 11:19:06;;;;;;;4.82;3.47;;;24.00;74.90;;;;;;4896472;29;20067;-83
2021/06/11 11:21:35;;;;;;;4.00;2.80;;;24.00;75.60;;;;;;4896957;29;20122;-83
2021/06/11 11:24:05;;;;;;;5.20;3.78;;;24.00;76.10;;;;;;4898131;29;20072;-83
2021/06/11 11:26:45;;;;;;;6.47;4.63;;;24.20;74.50;;;;;;4895868;29;20040;-83
2021/06/11 11:29:15;;;;;;;6.28;3.90;;;24.20;72.70;;;;;;4881543;29;20136;-83
2021/06/11 11:31:44;;;;;;;4.60;3.22;;;24.20;71.20;;;;;;4894443;29;20056;-83
2021/06/11 11:34:10;;;;;;;5.45;3.40;;;24.30;71.50;;;;;;4918831;29;20055;-83
2021/06/11 11:36:38;;;;;;;4.32;3.10;;;24.30;71.80;;;;;;4919090;29;20126;-82
2021/06/11 11:39:07;;;;;;;4.85;2.78;;;24.30;70.40;;;;;;4918216;29;20083;-85
2021/06/11 11:41:34;;;;;;;3.40;2.40;;;24.40;69.80;;;;;;4918639;29;20462;-84
2021/06/11 11:44:02;;;;;;;3.45;2.45;;;24.40;69.50;;;;;;4911019;29;20176;-84
2021/06/11 11:46:28;;;;;;;4.28;2.80;;;24.50;69.40;;;;;;4886784;29;20053;-84
2021/06/11 11:48:55;;;;;;;4.50;3.45;;;24.50;68.80;;;;;;4880957;29;20483;-85
2021/06/11 11:51:22;;;;;;;4.20;2.90;;;24.60;68.20;;;;;;4881013;29;20098;-82
2021/06/11 11:53:49;;;;;;;4.85;3.17;;;24.60;64.30;;;;;;4880960;29;20049;-83
2021/06/11 11:56:15;;;;;;;4.57;2.40;;;24.70;61.20;;;;;;4895970;29;20131;-85
2021/06/11 11:58:42;;;;;;;4.03;2.70;;;24.70;60.60;;;;;;4899570;29;20072;-86
2021/06/11 12:01:10;;;;;;;4.30;2.60;;;24.80;60.20;;;;;;4899623;29;20137;-84
2021/06/11 12:03:36;;;;;;;3.70;2.80;;;24.80;59.30;;;;;;4899406;29;20143;-83
2021/06/11 12:06:04;;;;;;;4.18;3.08;;;24.90;59.80;;;;;;4884860;29;20053;-84
2021/06/11 12:08:30;;;;;;;4.40;2.45;;;25.00;60.00;;;;;;4885868;29;20068;-85
2021/06/11 12:10:58;;;;;;;4.57;3.25;;;25.00;60.60;;;;;;4899219;29;20472;-86
2021/06/11 12:13:26;;;;;;;4.00;2.67;;;25.10;60.90;;;;;;4899327;29;20053;-85
2021/06/11 12:15:53;;;;;;;3.63;2.47;;;25.20;60.80;;;;;;4886337;29;20059;-84
2021/06/11 12:18:21;;;;;;;4.00;2.75;;;25.30;60.50;;;;;;4880664;29;20135;-83
2021/06/11 12:20:48;;;;;;;5.03;3.00;;;25.40;61.10;;;;;;4880471;29;20113;-84
2021/06/11 12:23:14;;;;;;;4.00;2.70;;;25.50;59.40;;;;;;4880385;29;20088;-85
2021/06/11 12:25:41;;;;;;;4.25;3.00;;;25.50;59.50;;;;;;4884660;29;20534;-84
2021/06/11 12:28:08;;;;;;;3.28;2.20;;;25.60;58.90;;;;;;4892997;29;20049;-83
2021/06/11 12:30:35;;;;;;;3.15;2.10;;;25.70;59.50;;;;;;4880128;29;20071;-84
2021/06/11 12:33:01;;;;;;;3.85;2.63;;;25.90;60.10;;;;;;4880229;29;20131;-84
2021/06/11 12:35:31;;;;;;;4.30;2.55;;;26.00;60.00;;;;;;4881422;29;20140;-85
2021/06/11 12:38:00;;;;;;;3.95;2.45;;;26.10;60.00;;;;;;4886905;29;20485;-85
2021/06/11 12:40:26;;;;;;;3.97;2.53;;;26.20;60.20;;;;;;4898798;29;20458;-84
2021/06/11 12:43:03;;;;;;;3.60;2.10;;;26.40;59.90;;;;;;4898902;29;20056;-83
2021/06/11 12:45:30;;;;;;;3.10;2.20;;;26.50;59.20;;;;;;4891186;29;20047;-84
2021/06/11 12:47:57;;;;;;;4.15;2.58;;;26.50;59.20;;;;;;4897846;29;20143;-83
2021/06/11 12:50:24;;;;;;;3.95;3.00;;;26.70;58.80;;;;;;4897855;29;20135;-83
2021/06/11 12:52:54;;;;;;;3.60;2.47;;;26.80;57.70;;;;;;4897810;29;20131;-84
2021/06/11 12:55:21;;;;;;;4.95;3.20;;;26.80;57.10;;;;;;4898426;29;20052;-86
2021/06/11 12:57:48;;;;;;;4.20;2.95;;;27.00;55.50;;;;;;4899031;29;20074;-86
2021/06/11 13:00:16;;;;;;;4.07;2.80;;;27.10;53.50;;;;;;4898261;29;20060;-88
2021/06/11 13:02:43;;;;;;;5.15;3.80;;;27.10;52.80;;;;;;4889876;29;20054;-86
2021/06/11 13:05:14;;;;;;;5.40;3.03;;;27.20;52.50;;;;;;4898259;29;20499;-83
2021/06/11 13:07:41;;;;;;;3.58;2.53;;;27.20;53.00;;;;;;4896382;29;20139;-86
2021/06/11 13:10:10;;;;;;;4.20;2.90;;;27.30;54.60;;;;;;4887334;29;20477;-84
2021/06/11 13:12:36;;;;;;;4.40;3.00;;;27.50;55.00;;;;;;4893023;29;20084;-85
2021/06/11 13:15:04;;;;;;;3.88;2.30;;;27.60;55.10;;;;;;4897736;29;20127;-85
2021/06/11 13:17:31;;;;;;;4.22;2.67;;;27.80;55.10;;;;;;4885191;29;20087;-85
2021/06/11 13:19:57;;;;;;;4.72;2.60;;;27.90;55.70;;;;;;4897140;29;20119;-88
2021/06/11 13:22:24;;;;;;;4.13;2.90;;;28.10;54.60;;;;;;4897262;29;20192;-84
2021/06/11 13:24:51;;;;;;;6.18;3.30;;;28.20;54.40;;;;;;4894208;29;20081;-84
2021/06/11 13:27:19;;;;;;;4.25;2.80;;;28.30;53.30;;;;;;4894658;29;20131;-85
2021/06/11 13:29:45;;;;;;;4.43;2.53;;;28.40;52.10;;;;;;4897053;29;20066;-87
2021/06/11 13:32:12;;;;;;;3.45;2.65;;;28.40;52.70;;;;;;4896267;29;20131;-87
2021/06/11 13:34:38;;;;;;;3.38;2.40;;;28.50;53.60;;;;;;4886193;29;20139;-86
2021/06/11 13:37:05;;;;;;;4.10;2.70;;;;;;;;;;4897093;29;20148;-83
2021/06/11 13:39:34;;;;;;;4.20;2.85;;;;;;;;;;4896928;29;20135;-87
2021/06/11 13:42:01;;;;;;;4.25;2.92;;;;;;;;;;4897233;29;20059;-82
2021/06/11 13:44:29;;;;;;;4.00;3.03;;;29.30;51.40;;;;;;4892617;29;20044;-85
2021/06/11 13:46:56;;;;;;;4.05;2.88;;;29.40;51.60;;;;;;4896669;29;20083;-85
2021/06/11 13:49:23;;;;;;;4.35;2.90;;;29.50;51.30;;;;;;4892946;29;20080;-85
2021/06/11 13:51:49;;;;;;;3.90;2.80;;;29.60;50.60;;;;;;4882294;29;20144;-84
2021/06/11 13:54:16;;;;;;;4.32;2.97;;;29.70;50.30;;;;;;4893043;29;20139;-84
2021/06/11 13:56:46;;;;;;;4.20;2.90;;;29.60;48.80;;;;;;4896100;29;20081;-83
2021/06/11 13:59:12;;;;;;;4.30;2.40;;;29.70;51.50;;;;;;4879028;29;20105;-84
2021/06/11 14:01:40;;;;;;;3.58;2.60;;;29.90;51.90;;;;;;4891580;29;20131;-85
2021/06/11 14:04:07;;;;;;;4.47;2.80;;;30.00;51.30;;;;;;4899260;29;20135;-83
2021/06/11 14:06:33;;;;;;;4.07;3.00;;;30.00;50.80;;;;;;4900834;29;20138;-84
2021/06/11 14:09:00;;;;;;;3.47;2.70;;;30.10;50.60;;;;;;4888210;29;20415;-85
2021/06/11 14:11:26;;;;;;;4.50;2.90;;;30.20;51.00;;;;;;4893101;29;20406;-84
2021/06/11 14:13:53;;;;;;;4.13;2.97;;;30.20;49.20;;;;;;4891355;29;20139;-83
2021/06/11 14:16:20;;;;;;;4.20;3.28;;;30.10;50.20;;;;;;4900715;29;20132;-83
2021/06/11 14:18:48;;;;;;;5.85;3.60;;;30.00;48.80;;;;;;4900399;29;20135;-84
2021/06/11 14:21:16;;;;;;;4.55;3.60;;;30.00;49.20;;;;;;4900831;29;20045;-84
2021/06/11 14:23:43;;;;;;;4.43;2.90;;;30.00;50.40;;;;;;4900691;29;20132;-79
2021/06/11 14:26:09;;;;;;;5.18;3.30;;;30.20;51.10;;;;;;4895148;29;20075;-86
2021/06/11 14:28:36;;;;;;;5.28;3.45;;;30.30;50.60;;;;;;4891229;29;20048;-80
2021/06/11 14:31:03;;;;;;;4.32;3.10;;;30.10;49.20;;;;;;4896556;29;20228;-80
2021/06/11 14:33:30;;;;;;;4.20;3.20;;;30.00;48.50;;;;;;4899729;29;20135;-79
2021/06/11 14:35:57;;;;;;;4.22;2.90;;;29.80;48.10;;;;;;4901173;29;20128;-83
2021/06/11 14:38:24;;;;;;;4.43;3.00;;;29.70;48.30;;;;;;4901002;29;20059;-81
2021/06/11 14:40:51;;;;;;;4.57;3.10;;;29.60;48.30;;;;;;4899426;29;20417;-83
2021/06/11 14:43:17;;;;;;;3.95;2.70;;;29.50;47.60;;;;;;4900816;29;20529;-78
2021/06/11 14:45:44;;;;;;;4.80;3.00;;;29.40;48.30;;;;;;4900798;29;20516;-78
2021/06/11 14:48:12;;;;;;;4.22;3.08;;;29.40;48.30;;;;;;4900842;29;20211;-81
2021/06/11 14:50:40;;;;;;;4.15;2.90;;;29.40;47.50;;;;;;4899281;29;20055;-84
2021/06/11 14:53:11;;;;;;;4.03;2.78;;;29.30;47.20;;;;;;4900897;29;20049;-81
2021/06/11 14:55:43;;;;;;;4.30;2.80;;;29.40;47.60;;;;;;4899604;29;20401;-83
2021/06/11 14:58:10;;;;;;;4.35;2.90;;;29.50;47.30;;;;;;4900676;29;20058;-85
2021/06/11 15:00:38;;;;;;;3.50;2.50;;;29.50;46.70;;;;;;4898938;29;20110;-83
2021/06/11 15:03:08;;;;;;;3.72;2.60;;;29.50;46.60;;;;;;4900505;29;20059;-82
2021/06/11 15:05:35;;;;;;;4.45;3.00;;;29.60;47.50;;;;;;4900133;29;20500;-83
2021/06/11 15:08:01;;;;;;;3.47;2.45;;;29.70;47.80;;;;;;4894420;29;20410;-84
2021/06/11 15:10:29;;;;;;;3.78;2.55;;;29.80;47.40;;;;;;4890463;29;20045;-85
2021/06/11 15:12:56;;;;;;;3.60;2.30;;;29.90;47.10;;;;;;4898787;29;20049;-83
2021/06/11 15:15:22;;;;;;;4.03;2.50;;;30.00;47.00;;;;;;4895998;29;20128;-82
2021/06/11 15:17:50;;;;;;;4.70;2.50;;;30.10;46.00;;;;;;4896118;29;20132;-82
2021/06/11 15:20:17;;;;;;;3.90;2.45;;;30.20;46.90;;;;;;4882803;29;20109;-84
2021/06/11 15:22:43;;;;;;;5.18;2.70;;;30.20;45.90;;;;;;4867461;29;20049;-84
2021/06/11 15:25:11;;;;;;;4.18;2.67;;;30.20;45.50;;;;;;4874418;29;20055;-84
2021/06/11 15:27:39;;;;;;;4.55;3.17;;;30.20;45.40;;;;;;4876629;29;20515;-82
2021/06/11 15:30:07;;;;;;;3.75;2.50;;;30.30;45.90;;;;;;4875318;29;20144;-86
2021/06/11 15:32:34;;;;;;;4.43;2.63;;;30.30;45.40;;;;;;4880782;29;20128;-83
2021/06/11 15:35:00;;;;;;;3.22;2.28;;;30.40;46.00;;;;;;4880823;29;20124;-83
2021/06/11 15:37:27;;;;;;;4.10;2.75;;;30.50;55.50;;;;;;4880969;29;20056;-83
2021/06/11 15:39:57;;;;;;;4.60;2.83;;;30.60;50.60;;;;;;4880269;29;20045;-80
2021/06/11 15:42:23;;;;;;;4.82;3.03;;;30.50;48.50;;;;;;4877639;29;20049;-84
2021/06/11 15:44:51;;;;;;;3.70;2.30;;;30.50;45.50;;;;;;4880722;29;20100;-84
2021/06/11 15:47:18;;;;;;;3.40;2.08;;;30.50;46.30;;;;;;4880825;29;20076;-82
2021/06/11 15:49:44;;;;;;;3.35;1.90;;;30.50;45.70;;;;;;4881124;29;20057;-82
2021/06/11 15:52:11;;;;;;;3.70;2.38;;;30.70;63.90;;;;;;4879749;29;20470;-88
2021/06/11 15:54:37;;;;;;;3.75;2.50;;;30.70;57.40;;;;;;4873703;29;20166;-87
2021/06/11 15:57:05;;;;;;;4.00;2.28;;;30.70;61.70;;;;;;4869748;29;20055;-87
2021/06/11 15:59:32;;;;;;;4.28;2.20;;;30.80;57.30;;;;;;4880828;29;20056;-82
2021/06/11 16:02:00;;;;;;;3.00;2.10;;;30.90;44.20;;;;;;4876701;29;20132;-80
2021/06/11 16:04:26;;;;;;;4.57;2.80;;;30.90;44.00;;;;;;4862395;29;20132;-82
2021/06/11 16:06:57;;;;;;;4.65;2.70;;;30.80;43.60;;;;;;4868188;29;20152;-84
2021/06/11 16:09:24;;;;;;;3.65;2.45;;;30.80;42.80;;;;;;4880781;29;20045;-80
2021/06/11 16:11:50;;;;;;;3.83;2.47;;;30.80;43.10;;;;;;4880559;29;20472;-85
2021/06/11 16:14:17;;;;;;;3.97;2.70;;;31.00;58.10;;;;;;4874769;29;20049;-89
2021/06/11 16:16:43;;;;;;;3.97;2.80;;;31.00;48.60;;;;;;4885881;29;20045;-87
2021/06/11 16:19:11;;;;;;;4.88;3.10;;;31.00;49.70;;;;;;4881672;29;20470;-93
2021/06/11 16:21:38;;;;;;;3.58;2.38;;;31.00;51.50;;;;;;4888018;29;20075;-94
2021/06/11 16:24:06;;;;;;;4.00;2.80;;;30.90;52.80;;;;;;4881886;29;20503;-90
2021/06/11 16:26:33;;;;;;;4.38;2.50;;;31.00;53.60;;;;;;4881377;29;20049;-84
2021/06/11 16:29:02;;;;;;;4.18;2.50;;;31.30;69.00;;;;;;4884365;29;20174;-89
2021/06/11 16:31:29;;;;;;;3.97;2.60;;;31.00;67.80;;;;;;4884527;29;20145;-90
2021/06/11 16:33:55;;;;;;;4.07;2.90;;;31.20;67.80;;;;;;4880499;29;20053;-87
2021/06/11 16:36:23;;;;;;;4.15;2.40;;;31.20;68.00;;;;;;4879612;29;20119;-91
2021/06/11 16:38:52;;;;;;;6.75;2.80;;;31.60;72.40;;;;;;4881901;29;20128;-95
2021/06/11 16:41:21;;;;;;;6.22;3.17;;;31.30;71.90;;;;;;4880474;29;20097;-95
2021/06/11 16:43:48;;;;;;;3.95;2.60;;;31.30;71.10;;;;;;4867559;29;20049;-95
2021/06/11 16:46:16;;;;;;;4.40;3.20;;;31.30;69.20;;;;;;4861933;29;20060;-84
2021/06/11 16:48:44;;;;;;;4.45;3.35;;;31.40;66.60;;;;;;4863629;29;20101;-93
2021/06/11 16:51:10;;;;;;;4.82;3.25;;;31.30;66.90;;;;;;4864509;29;20050;-86
2021/06/11 16:53:39;;;;;;;3.88;2.90;;;31.20;66.60;;;;;;4862242;29;20050;-87
2021/06/11 16:56:06;;;;;;;3.30;2.40;;;31.30;67.10;;;;;;4861727;29;20096;-86
2021/06/11 16:58:35;;;;;;;3.78;2.42;;;31.50;74.30;;;;;;4862817;29;20081;-86
2021/06/11 17:01:06;;;;;;;4.25;2.45;;;31.60;75.50;;;;;;4861738;29;20113;-88
2021/06/11 17:03:33;;;;;;;3.47;2.42;;;;;;;;;;4863332;29;20080;-89
2021/06/11 17:05:59;;;;;;;3.78;2.60;;;31.40;44.40;;;;;;4862563;29;20094;-86
2021/06/11 17:08:27;;;;;;;3.25;2.40;;;31.40;44.80;;;;;;4879788;29;20136;-87
2021/06/11 17:10:55;;;;;;;3.38;2.40;;;31.40;44.60;;;;;;4875041;29;20072;-87
2021/06/11 17:13:22;;;;;;;3.25;2.28;;;31.50;44.90;;;;;;4861414;29;20069;-86
2021/06/11 17:15:50;;;;;;;3.63;2.45;;;31.50;45.00;;;;;;4864375;29;20097;-86
2021/06/11 17:18:17;;;;;;;3.80;2.30;;;31.60;45.10;;;;;;4860909;29;20105;-86
2021/06/11 17:20:45;;;;;;;5.30;3.40;;;31.70;45.00;;;;;;4864420;29;20060;-84
2021/06/11 17:23:18;;;;;;;5.25;4.40;;;31.70;44.40;;;;;;4881897;29;20053;-85
2021/06/11 17:25:46;;;;;;;4.47;3.40;;;31.70;44.10;;;;;;4878239;29;20056;-88
2021/06/11 17:28:24;;;;;;;4.68;2.97;;;31.60;44.20;;;;;;4875908;29;20087;-86
2021/06/11 17:30:53;;;;;;;4.57;3.35;;;31.60;45.00;;;;;;4876632;29;20072;-87
2021/06/11 17:33:26;;;;;;;5.85;3.50;;;31.60;45.10;;;;;;4862399;29;20144;-87
2021/06/11 17:35:56;;;;;;;3.92;2.90;;;31.50;45.40;;;;;;4878944;29;20052;-86
2021/06/11 17:38:23;;;;;;;4.38;3.20;;;31.50;45.70;;;;;;4878182;29;20076;-87
2021/06/11 17:40:51;;;;;;;5.22;3.25;;;31.40;45.30;;;;;;4861960;29;20148;-84
2021/06/11 17:43:24;;;;;;;4.60;3.70;;;31.40;45.80;;;;;;4872267;29;20494;-84
2021/06/11 17:45:52;;;;;;;5.43;3.63;;;31.30;45.30;;;;;;4877166;29;20548;-84
2021/06/11 17:48:21;;;;;;;4.30;3.03;;;31.20;45.90;;;;;;4876153;29;20487;-84
2021/06/11 17:50:48;;;;;;;3.65;2.95;;;31.10;46.50;;;;;;4866624;29;20144;-84
2021/06/11 17:53:31;;;;;;;4.88;3.45;;;31.00;46.90;;;;;;4872042;29;20069;-84
2021/06/11 17:55:59;;;;;;;4.10;3.28;;;30.90;47.10;;;;;;4858164;29;20060;-84
2021/06/11 17:58:28;;;;;;;4.28;3.10;;;30.80;47.70;;;;;;4858010;29;20409;-84